sensor_id;sensor_type;location;lat;lon;timestamp;P1;durP1;ratioP1;P2;durP2;ratioP2
7563;SDS011;3823;53.586;10.040;2023-02-28T00:00:29;6.28;;;3.13;;
7563;SDS011;3823;53.586;10.040;2023-02-28T00:02:55;5.00;;;2.65;;
7563;SDS011;3823;53.586;10.040;2023-02-28T00:05:21;3.45;;;2.92;;
7563;SDS011;3823;53.586;10.040;2023-02-28T00:07:49;4.28;;;3.05;;
7563;SDS011;3823;53.586;10.040;2023-02-28T00:12:48;5.68;;;2.63;;
7563;SDS011;3823;53.586;10.040;2023-02-28T00:15:14;6.68;;;3.08;;
7563;SDS011;3823;53.586;10.040;2023-02-28T00:17:40;4.97;;;2.88;;
7563;SDS011;3823;53.586;10.040;2023-02-28T00:20:06;5.65;;;3.17;;
7563;SDS011;3823;53.586;10.040;2023-02-28T00:22:33;6.28;;;2.45;;
7563;SDS011;3823;53.586;10.040;2023-02-28T00:24:59;5.60;;;2.55;;
7563;SDS011;3823;53.586;10.040;2023-02-28T00:27:25;3.10;;;2.80;;
7563;SDS011;3823;53.586;10.040;2023-02-28T00:29:50;5.55;;;2.60;;
7563;SDS011;3823;53.586;10.040;2023-02-28T00:32:16;4.68;;;2.35;;
7563;SDS011;3823;53.586;10.040;2023-02-28T00:34:43;6.78;;;3.10;;
7563;SDS011;3823;53.586;10.040;2023-02-28T00:37:09;3.05;;;2.33;;
7563;SDS011;3823;53.586;10.040;2023-02-28T00:39:39;3.05;;;2.53;;
7563;SDS011;3823;53.586;10.040;2023-02-28T00:42:06;3.03;;;2.55;;
7563;SDS011;3823;53.586;10.040;2023-02-28T00:44:32;2.20;;;2.00;;
7563;SDS011;3823;53.586;10.040;2023-02-28T00:46:57;4.40;;;2.20;;
7563;SDS011;3823;53.586;10.040;2023-02-28T00:49:24;3.13;;;2.25;;
7563;SDS011;3823;53.586;10.040;2023-02-28T00:51:51;3.53;;;2.65;;
7563;SDS011;3823;53.586;10.040;2023-02-28T00:54:17;2.47;;;2.28;;
7563;SDS011;3823;53.586;10.040;2023-02-28T00:56:43;5.25;;;2.28;;
7563;SDS011;3823;53.586;10.040;2023-02-28T00:59:10;4.40;;;2.78;;
7563;SDS011;3823;53.586;10.040;2023-02-28T01:01:36;4.88;;;2.53;;
7563;SDS011;3823;53.586;10.040;2023-02-28T01:04:02;5.55;;;1.85;;
7563;SDS011;3823;53.586;10.040;2023-02-28T01:06:28;3.13;;;2.28;;
7563;SDS011;3823;53.586;10.040;2023-02-28T01:08:53;3.55;;;2.85;;
7563;SDS011;3823;53.586;10.040;2023-02-28T01:11:19;2.28;;;1.80;;
7563;SDS011;3823;53.586;10.040;2023-02-28T01:13:45;6.95;;;2.28;;
7563;SDS011;3823;53.586;10.040;2023-02-28T01:16:12;3.15;;;1.80;;
7563;SDS011;3823;53.586;10.040;2023-02-28T01:18:38;7.07;;;2.40;;
7563;SDS011;3823;53.586;10.040;2023-02-28T01:21:08;2.35;;;2.13;;
7563;SDS011;3823;53.586;10.040;2023-02-28T01:23:35;11.38;;;2.70;;
7563;SDS011;3823;53.586;10.040;2023-02-28T01:26:08;3.42;;;2.38;;
7563;SDS011;3823;53.586;10.040;2023-02-28T01:28:52;2.55;;;2.35;;
7563;SDS011;3823;53.586;10.040;2023-02-28T01:31:18;7.70;;;2.78;;
7563;SDS011;3823;53.586;10.040;2023-02-28T01:33:45;3.10;;;2.80;;
7563;SDS011;3823;53.586;10.040;2023-02-28T01:36:12;5.30;;;2.40;;
7563;SDS011;3823;53.586;10.040;2023-02-28T01:38:42;4.88;;;2.50;;
7563;SDS011;3823;53.586;10.040;2023-02-28T01:41:08;3.97;;;2.83;;
7563;SDS011;3823;53.586;10.040;2023-02-28T01:46:09;3.88;;;2.33;;
7563;SDS011;3823;53.586;10.040;2023-02-28T01:48:40;8.98;;;2.85;;
7563;SDS011;3823;53.586;10.040;2023-02-28T01:51:14;6.47;;;2.00;;
7563;SDS011;3823;53.586;10.040;2023-02-28T01:53:45;2.60;;;2.40;;
7563;SDS011;3823;53.586;10.040;2023-02-28T01:56:17;2.53;;;2.17;;
7563;SDS011;3823;53.586;10.040;2023-02-28T01:58:48;4.10;;;2.38;;
7563;SDS011;3823;53.586;10.040;2023-02-28T02:01:18;6.50;;;3.35;;
7563;SDS011;3823;53.586;10.040;2023-02-28T02:03:51;5.50;;;2.55;;
7563;SDS011;3823;53.586;10.040;2023-02-28T02:06:24;3.10;;;2.33;;
7563;SDS011;3823;53.586;10.040;2023-02-28T02:08:53;5.63;;;4.03;;
7563;SDS011;3823;53.586;10.040;2023-02-28T02:11:20;4.90;;;3.28;;
7563;SDS011;3823;53.586;10.040;2023-02-28T02:28:41;3.53;;;3.22;;
7563;SDS011;3823;53.586;10.040;2023-02-28T02:31:27;5.95;;;2.55;;
7563;SDS011;3823;53.586;10.040;2023-02-28T02:34:08;4.15;;;3.20;;
7563;SDS011;3823;53.586;10.040;2023-02-28T02:39:40;5.05;;;3.40;;
7563;SDS011;3823;53.586;10.040;2023-02-28T02:42:16;2.63;;;2.40;;
7563;SDS011;3823;53.586;10.040;2023-02-28T02:44:55;3.97;;;2.80;;
7563;SDS011;3823;53.586;10.040;2023-02-28T02:47:26;3.85;;;3.05;;
7563;SDS011;3823;53.586;10.040;2023-02-28T02:49:55;7.85;;;3.53;;
7563;SDS011;3823;53.586;10.040;2023-02-28T02:52:29;7.20;;;3.97;;
7563;SDS011;3823;53.586;10.040;2023-02-28T02:54:59;6.80;;;3.35;;
7563;SDS011;3823;53.586;10.040;2023-02-28T02:57:29;8.63;;;3.10;;
7563;SDS011;3823;53.586;10.040;2023-02-28T02:59:59;3.53;;;2.80;;
7563;SDS011;3823;53.586;10.040;2023-02-28T03:02:26;5.55;;;3.67;;
7563;SDS011;3823;53.586;10.040;2023-02-28T03:04:59;6.05;;;3.40;;
7563;SDS011;3823;53.586;10.040;2023-02-28T03:07:29;4.90;;;3.30;;
7563;SDS011;3823;53.586;10.040;2023-02-28T03:09:55;4.40;;;3.35;;
7563;SDS011;3823;53.586;10.040;2023-02-28T03:12:23;7.18;;;3.67;;
7563;SDS011;3823;53.586;10.040;2023-02-28T03:15:24;8.35;;;3.97;;
7563;SDS011;3823;53.586;10.040;2023-02-28T03:21:06;7.35;;;4.00;;
7563;SDS011;3823;53.586;10.040;2023-02-28T03:23:35;4.85;;;3.80;;
7563;SDS011;3823;53.586;10.040;2023-02-28T03:26:12;6.75;;;3.80;;
7563;SDS011;3823;53.586;10.040;2023-02-28T03:31:27;6.45;;;4.30;;
7563;SDS011;3823;53.586;10.040;2023-02-28T03:34:05;5.78;;;3.83;;
7563;SDS011;3823;53.586;10.040;2023-02-28T03:36:45;4.63;;;4.13;;
7563;SDS011;3823;53.586;10.040;2023-02-28T03:39:17;5.15;;;4.28;;
7563;SDS011;3823;53.586;10.040;2023-02-28T03:41:50;6.72;;;4.25;;
7563;SDS011;3823;53.586;10.040;2023-02-28T03:44:28;5.82;;;4.57;;
7563;SDS011;3823;53.586;10.040;2023-02-28T03:47:00;8.00;;;4.45;;
7563;SDS011;3823;53.586;10.040;2023-02-28T03:49:40;9.00;;;4.57;;
7563;SDS011;3823;53.586;10.040;2023-02-28T03:52:12;9.27;;;4.80;;
7563;SDS011;3823;53.586;10.040;2023-02-28T03:54:46;6.82;;;4.72;;
7563;SDS011;3823;53.586;10.040;2023-02-28T03:57:27;4.38;;;3.95;;
7563;SDS011;3823;53.586;10.040;2023-02-28T04:00:12;8.98;;;4.85;;
7563;SDS011;3823;53.586;10.040;2023-02-28T04:02:44;6.28;;;3.97;;
7563;SDS011;3823;53.586;10.040;2023-02-28T04:05:10;6.10;;;4.85;;
7563;SDS011;3823;53.586;10.040;2023-02-28T04:07:36;6.47;;;5.00;;
7563;SDS011;3823;53.586;10.040;2023-02-28T04:10:01;10.93;;;5.10;;
7563;SDS011;3823;53.586;10.040;2023-02-28T04:12:27;7.13;;;5.10;;
7563;SDS011;3823;53.586;10.040;2023-02-28T04:14:53;8.60;;;4.43;;
7563;SDS011;3823;53.586;10.040;2023-02-28T04:17:18;5.50;;;4.93;;
7563;SDS011;3823;53.586;10.040;2023-02-28T04:19:44;10.10;;;4.82;;
7563;SDS011;3823;53.586;10.040;2023-02-28T04:22:10;7.35;;;4.75;;
7563;SDS011;3823;53.586;10.040;2023-02-28T04:24:35;6.22;;;5.18;;
7563;SDS011;3823;53.586;10.040;2023-02-28T04:27:01;7.38;;;4.90;;
7563;SDS011;3823;53.586;10.040;2023-02-28T04:29:28;7.45;;;5.00;;
7563;SDS011;3823;53.586;10.040;2023-02-28T04:31:57;11.45;;;5.90;;
7563;SDS011;3823;53.586;10.040;2023-02-28T04:34:24;10.05;;;5.88;;
7563;SDS011;3823;53.586;10.040;2023-02-28T04:36:51;9.63;;;5.85;;
7563;SDS011;3823;53.586;10.040;2023-02-28T04:39:19;6.88;;;5.35;;
7563;SDS011;3823;53.586;10.040;2023-02-28T04:41:45;5.68;;;4.50;;
7563;SDS011;3823;53.586;10.040;2023-02-28T04:44:12;10.55;;;5.60;;
7563;SDS011;3823;53.586;10.040;2023-02-28T04:46:38;6.95;;;5.15;;
7563;SDS011;3823;53.586;10.040;2023-02-28T04:49:04;7.10;;;5.35;;
7563;SDS011;3823;53.586;10.040;2023-02-28T04:51:29;8.88;;;5.40;;
7563;SDS011;3823;53.586;10.040;2023-02-28T04:53:55;5.57;;;5.13;;
7563;SDS011;3823;53.586;10.040;2023-02-28T04:56:21;7.90;;;5.53;;
7563;SDS011;3823;53.586;10.040;2023-02-28T04:58:46;7.78;;;5.55;;
7563;SDS011;3823;53.586;10.040;2023-02-28T05:03:50;7.30;;;5.35;;
7563;SDS011;3823;53.586;10.040;2023-02-28T05:06:17;8.93;;;5.38;;
7563;SDS011;3823;53.586;10.040;2023-02-28T05:08:43;7.30;;;5.47;;
7563;SDS011;3823;53.586;10.040;2023-02-28T05:11:13;6.75;;;5.97;;
7563;SDS011;3823;53.586;10.040;2023-02-28T05:13:43;8.77;;;6.03;;
7563;SDS011;3823;53.586;10.040;2023-02-28T05:16:09;11.68;;;6.43;;
7563;SDS011;3823;53.586;10.040;2023-02-28T05:18:35;9.30;;;5.68;;
7563;SDS011;3823;53.586;10.040;2023-02-28T05:21:01;11.00;;;5.93;;
7563;SDS011;3823;53.586;10.040;2023-02-28T05:23:27;8.90;;;5.30;;
7563;SDS011;3823;53.586;10.040;2023-02-28T05:25:52;8.57;;;5.63;;
7563;SDS011;3823;53.586;10.040;2023-02-28T05:28:19;26.35;;;6.78;;
7563;SDS011;3823;53.586;10.040;2023-02-28T05:30:45;9.23;;;6.07;;
7563;SDS011;3823;53.586;10.040;2023-02-28T05:33:11;6.28;;;5.68;;
7563;SDS011;3823;53.586;10.040;2023-02-28T05:35:38;8.02;;;6.10;;
7563;SDS011;3823;53.586;10.040;2023-02-28T05:38:05;13.07;;;6.20;;
7563;SDS011;3823;53.586;10.040;2023-02-28T05:40:31;14.43;;;6.45;;
7563;SDS011;3823;53.586;10.040;2023-02-28T05:42:56;9.60;;;7.47;;
7563;SDS011;3823;53.586;10.040;2023-02-28T05:45:22;10.57;;;6.93;;
7563;SDS011;3823;53.586;10.040;2023-02-28T05:47:48;10.55;;;6.18;;
7563;SDS011;3823;53.586;10.040;2023-02-28T05:50:13;12.60;;;6.90;;
7563;SDS011;3823;53.586;10.040;2023-02-28T05:52:39;10.18;;;6.47;;
7563;SDS011;3823;53.586;10.040;2023-02-28T05:55:05;7.47;;;6.03;;
7563;SDS011;3823;53.586;10.040;2023-02-28T05:57:31;7.28;;;6.10;;
7563;SDS011;3823;53.586;10.040;2023-02-28T05:59:56;8.00;;;6.03;;
7563;SDS011;3823;53.586;10.040;2023-02-28T06:02:22;9.35;;;6.03;;
7563;SDS011;3823;53.586;10.040;2023-02-28T06:04:47;10.95;;;6.40;;
7563;SDS011;3823;53.586;10.040;2023-02-28T06:07:14;8.63;;;7.63;;
7563;SDS011;3823;53.586;10.040;2023-02-28T06:09:40;7.63;;;5.97;;
7563;SDS011;3823;53.586;10.040;2023-02-28T06:12:06;11.57;;;7.53;;
7563;SDS011;3823;53.586;10.040;2023-02-28T06:14:32;10.00;;;6.72;;
7563;SDS011;3823;53.586;10.040;2023-02-28T06:16:59;11.45;;;8.13;;
7563;SDS011;3823;53.586;10.040;2023-02-28T06:19:25;14.57;;;8.43;;
7563;SDS011;3823;53.586;10.040;2023-02-28T06:21:52;9.15;;;6.72;;
7563;SDS011;3823;53.586;10.040;2023-02-28T06:24:19;9.57;;;6.60;;
7563;SDS011;3823;53.586;10.040;2023-02-28T06:26:46;13.45;;;10.20;;
7563;SDS011;3823;53.586;10.040;2023-02-28T06:29:11;12.57;;;7.25;;
7563;SDS011;3823;53.586;10.040;2023-02-28T06:31:38;10.32;;;6.75;;
7563;SDS011;3823;53.586;10.040;2023-02-28T06:34:03;7.35;;;6.45;;
7563;SDS011;3823;53.586;10.040;2023-02-28T06:36:30;9.30;;;6.88;;
7563;SDS011;3823;53.586;10.040;2023-02-28T06:38:55;7.47;;;6.40;;
7563;SDS011;3823;53.586;10.040;2023-02-28T06:41:25;10.90;;;6.72;;
7563;SDS011;3823;53.586;10.040;2023-02-28T06:43:51;7.65;;;6.55;;
7563;SDS011;3823;53.586;10.040;2023-02-28T06:46:17;12.05;;;6.47;;
7563;SDS011;3823;53.586;10.040;2023-02-28T06:48:43;8.20;;;6.57;;
7563;SDS011;3823;53.586;10.040;2023-02-28T06:51:14;9.00;;;6.43;;
7563;SDS011;3823;53.586;10.040;2023-02-28T06:53:41;8.50;;;6.30;;
7563;SDS011;3823;53.586;10.040;2023-02-28T06:56:08;7.82;;;6.13;;
7563;SDS011;3823;53.586;10.040;2023-02-28T06:58:35;9.50;;;6.38;;
7563;SDS011;3823;53.586;10.040;2023-02-28T07:01:02;7.88;;;6.60;;
7563;SDS011;3823;53.586;10.040;2023-02-28T07:03:28;10.50;;;6.18;;
7563;SDS011;3823;53.586;10.040;2023-02-28T07:05:54;13.82;;;6.82;;
7563;SDS011;3823;53.586;10.040;2023-02-28T07:08:21;12.57;;;7.25;;
7563;SDS011;3823;53.586;10.040;2023-02-28T07:10:51;18.00;;;7.05;;
7563;SDS011;3823;53.586;10.040;2023-02-28T07:13:17;10.32;;;6.28;;
7563;SDS011;3823;53.586;10.040;2023-02-28T07:15:42;12.55;;;7.47;;
7563;SDS011;3823;53.586;10.040;2023-02-28T07:18:08;10.65;;;6.63;;
7563;SDS011;3823;53.586;10.040;2023-02-28T07:20:33;11.38;;;6.10;;
7563;SDS011;3823;53.586;10.040;2023-02-28T07:22:59;12.32;;;7.47;;
7563;SDS011;3823;53.586;10.040;2023-02-28T07:25:26;14.52;;;6.88;;
7563;SDS011;3823;53.586;10.040;2023-02-28T07:27:53;11.68;;;7.22;;
7563;SDS011;3823;53.586;10.040;2023-02-28T07:30:19;12.23;;;7.18;;
7563;SDS011;3823;53.586;10.040;2023-02-28T07:32:45;17.02;;;6.65;;
7563;SDS011;3823;53.586;10.040;2023-02-28T07:35:11;17.63;;;7.78;;
7563;SDS011;3823;53.586;10.040;2023-02-28T07:37:37;14.85;;;8.93;;
7563;SDS011;3823;53.586;10.040;2023-02-28T07:40:06;10.77;;;7.70;;
7563;SDS011;3823;53.586;10.040;2023-02-28T07:42:33;9.45;;;6.85;;
7563;SDS011;3823;53.586;10.040;2023-02-28T07:44:59;15.23;;;7.97;;
7563;SDS011;3823;53.586;10.040;2023-02-28T07:47:25;11.60;;;7.50;;
7563;SDS011;3823;53.586;10.040;2023-02-28T07:49:51;11.55;;;7.50;;
7563;SDS011;3823;53.586;10.040;2023-02-28T07:52:16;13.95;;;7.47;;
7563;SDS011;3823;53.586;10.040;2023-02-28T07:54:42;7.00;;;6.40;;
7563;SDS011;3823;53.586;10.040;2023-02-28T07:57:08;16.23;;;9.88;;
7563;SDS011;3823;53.586;10.040;2023-02-28T07:59:33;13.20;;;8.40;;
7563;SDS011;3823;53.586;10.040;2023-02-28T08:01:59;18.25;;;9.10;;
7563;SDS011;3823;53.586;10.040;2023-02-28T08:04:24;11.75;;;7.47;;
7563;SDS011;3823;53.586;10.040;2023-02-28T08:06:50;10.02;;;7.35;;
7563;SDS011;3823;53.586;10.040;2023-02-28T08:09:19;13.57;;;7.85;;
7563;SDS011;3823;53.586;10.040;2023-02-28T08:11:44;11.93;;;7.57;;
7563;SDS011;3823;53.586;10.040;2023-02-28T08:14:10;13.40;;;8.52;;
7563;SDS011;3823;53.586;10.040;2023-02-28T08:16:35;15.63;;;8.60;;
7563;SDS011;3823;53.586;10.040;2023-02-28T08:19:02;15.38;;;8.25;;
7563;SDS011;3823;53.586;10.040;2023-02-28T08:21:28;15.30;;;7.70;;
7563;SDS011;3823;53.586;10.040;2023-02-28T08:23:53;14.10;;;8.57;;
7563;SDS011;3823;53.586;10.040;2023-02-28T08:26:19;16.77;;;9.00;;
7563;SDS011;3823;53.586;10.040;2023-02-28T08:28:45;11.45;;;7.97;;
7563;SDS011;3823;53.586;10.040;2023-02-28T08:31:12;15.95;;;8.45;;
7563;SDS011;3823;53.586;10.040;2023-02-28T08:33:40;12.70;;;7.43;;
7563;SDS011;3823;53.586;10.040;2023-02-28T08:36:07;12.30;;;7.93;;
7563;SDS011;3823;53.586;10.040;2023-02-28T08:38:33;9.25;;;7.03;;
7563;SDS011;3823;53.586;10.040;2023-02-28T08:41:01;16.58;;;8.75;;
7563;SDS011;3823;53.586;10.040;2023-02-28T08:43:28;8.15;;;6.47;;
7563;SDS011;3823;53.586;10.040;2023-02-28T08:45:54;7.18;;;6.38;;
7563;SDS011;3823;53.586;10.040;2023-02-28T08:48:22;8.48;;;6.10;;
7563;SDS011;3823;53.586;10.040;2023-02-28T08:50:59;13.30;;;7.38;;
7563;SDS011;3823;53.586;10.040;2023-02-28T08:53:27;7.70;;;6.45;;
7563;SDS011;3823;53.586;10.040;2023-02-28T08:55:59;7.97;;;5.07;;
7563;SDS011;3823;53.586;10.040;2023-02-28T08:58:30;4.65;;;3.95;;
7563;SDS011;3823;53.586;10.040;2023-02-28T09:00:56;7.38;;;4.75;;
7563;SDS011;3823;53.586;10.040;2023-02-28T09:03:22;5.00;;;4.57;;
7563;SDS011;3823;53.586;10.040;2023-02-28T09:08:24;10.13;;;4.85;;
7563;SDS011;3823;53.586;10.040;2023-02-28T09:10:51;10.93;;;4.03;;
7563;SDS011;3823;53.586;10.040;2023-02-28T09:13:17;4.93;;;4.45;;
7563;SDS011;3823;53.586;10.040;2023-02-28T09:15:43;6.50;;;4.10;;
7563;SDS011;3823;53.586;10.040;2023-02-28T09:18:09;7.18;;;4.75;;
7563;SDS011;3823;53.586;10.040;2023-02-28T09:20:37;6.28;;;4.70;;
7563;SDS011;3823;53.586;10.040;2023-02-28T09:23:04;8.75;;;4.30;;
7563;SDS011;3823;53.586;10.040;2023-02-28T09:25:30;4.90;;;4.20;;
7563;SDS011;3823;53.586;10.040;2023-02-28T09:27:56;5.93;;;3.33;;
7563;SDS011;3823;53.586;10.040;2023-02-28T09:30:21;5.50;;;3.67;;
7563;SDS011;3823;53.586;10.040;2023-02-28T09:32:47;3.85;;;3.45;;
7563;SDS011;3823;53.586;10.040;2023-02-28T09:35:18;7.60;;;3.75;;
7563;SDS011;3823;53.586;10.040;2023-02-28T09:37:46;4.95;;;3.35;;
7563;SDS011;3823;53.586;10.040;2023-02-28T09:40:12;5.03;;;3.20;;
7563;SDS011;3823;53.586;10.040;2023-02-28T09:42:39;4.03;;;3.28;;
7563;SDS011;3823;53.586;10.040;2023-02-28T09:45:06;3.50;;;3.20;;
7563;SDS011;3823;53.586;10.040;2023-02-28T09:47:58;5.03;;;3.38;;
7563;SDS011;3823;53.586;10.040;2023-02-28T09:52:55;4.47;;;2.60;;
7563;SDS011;3823;53.586;10.040;2023-02-28T09:55:43;5.10;;;2.30;;
7563;SDS011;3823;53.586;10.040;2023-02-28T09:58:15;2.00;;;1.77;;
7563;SDS011;3823;53.586;10.040;2023-02-28T10:04:00;4.72;;;2.47;;
7563;SDS011;3823;53.586;10.040;2023-02-28T10:06:35;3.17;;;2.20;;
7563;SDS011;3823;53.586;10.040;2023-02-28T10:09:24;1.80;;;1.70;;
7563;SDS011;3823;53.586;10.040;2023-02-28T10:11:54;2.30;;;2.03;;
7563;SDS011;3823;53.586;10.040;2023-02-28T10:14:26;2.83;;;2.00;;
7563;SDS011;3823;53.586;10.040;2023-02-28T10:16:55;2.25;;;2.05;;
7563;SDS011;3823;53.586;10.040;2023-02-28T10:19:29;2.67;;;2.47;;
7563;SDS011;3823;53.586;10.040;2023-02-28T10:22:16;2.30;;;2.10;;
7563;SDS011;3823;53.586;10.040;2023-02-28T10:24:46;2.72;;;2.10;;
7563;SDS011;3823;53.586;10.040;2023-02-28T10:27:15;2.30;;;2.10;;
7563;SDS011;3823;53.586;10.040;2023-02-28T10:29:55;2.72;;;2.03;;
7563;SDS011;3823;53.586;10.040;2023-02-28T10:32:23;4.93;;;2.33;;
7563;SDS011;3823;53.586;10.040;2023-02-28T10:34:59;2.40;;;2.20;;
7563;SDS011;3823;53.586;10.040;2023-02-28T10:37:31;3.47;;;1.70;;
7563;SDS011;3823;53.586;10.040;2023-02-28T10:39:57;3.72;;;2.25;;
7563;SDS011;3823;53.586;10.040;2023-02-28T10:42:24;2.65;;;2.00;;
7563;SDS011;3823;53.586;10.040;2023-02-28T10:45:10;3.60;;;2.10;;
7563;SDS011;3823;53.586;10.040;2023-02-28T10:47:41;3.20;;;2.33;;
7563;SDS011;3823;53.586;10.040;2023-02-28T10:50:34;3.60;;;2.38;;
7563;SDS011;3823;53.586;10.040;2023-02-28T10:53:10;5.30;;;2.38;;
7563;SDS011;3823;53.586;10.040;2023-02-28T10:55:42;3.25;;;2.22;;
7563;SDS011;3823;53.586;10.040;2023-02-28T10:58:21;2.22;;;2.00;;
7563;SDS011;3823;53.586;10.040;2023-02-28T11:00:48;5.22;;;2.22;;
7563;SDS011;3823;53.586;10.040;2023-02-28T11:03:24;2.65;;;2.45;;
7563;SDS011;3823;53.586;10.040;2023-02-28T11:05:58;3.60;;;2.13;;
7563;SDS011;3823;53.586;10.040;2023-02-28T11:08:28;4.70;;;2.65;;
7563;SDS011;3823;53.586;10.040;2023-02-28T11:10:55;7.53;;;2.88;;
7563;SDS011;3823;53.586;10.040;2023-02-28T11:13:41;3.95;;;1.63;;
7563;SDS011;3823;53.586;10.040;2023-02-28T11:16:09;2.70;;;1.90;;
7563;SDS011;3823;53.586;10.040;2023-02-28T11:18:41;5.32;;;2.17;;
7563;SDS011;3823;53.586;10.040;2023-02-28T11:21:24;2.45;;;2.10;;
7563;SDS011;3823;53.586;10.040;2023-02-28T11:26:45;2.90;;;2.05;;
7563;SDS011;3823;53.586;10.040;2023-02-28T11:34:30;3.45;;;2.22;;
7563;SDS011;3823;53.586;10.040;2023-02-28T11:36:57;1.92;;;1.73;;
7563;SDS011;3823;53.586;10.040;2023-02-28T11:39:25;3.40;;;2.22;;
7563;SDS011;3823;53.586;10.040;2023-02-28T11:47:06;5.40;;;2.53;;
7563;SDS011;3823;53.586;10.040;2023-02-28T11:55:09;2.97;;;2.22;;
7563;SDS011;3823;53.586;10.040;2023-02-28T12:02:57;3.55;;;2.55;;
7563;SDS011;3823;53.586;10.040;2023-02-28T12:11:11;5.07;;;2.60;;
7563;SDS011;3823;53.586;10.040;2023-02-28T12:17:08;3.65;;;2.58;;
7563;SDS011;3823;53.586;10.040;2023-02-28T12:22:52;2.80;;;2.60;;
7563;SDS011;3823;53.586;10.040;2023-02-28T12:28:11;5.72;;;3.10;;
7563;SDS011;3823;53.586;10.040;2023-02-28T12:30:50;2.90;;;2.50;;
7563;SDS011;3823;53.586;10.040;2023-02-28T12:33:28;2.70;;;2.47;;
7563;SDS011;3823;53.586;10.040;2023-02-28T12:36:00;3.10;;;1.98;;
7563;SDS011;3823;53.586;10.040;2023-02-28T12:38:36;2.60;;;2.40;;
7563;SDS011;3823;53.586;10.040;2023-02-28T12:41:09;3.33;;;2.58;;
7563;SDS011;3823;53.586;10.040;2023-02-28T12:43:51;15.73;;;2.90;;
7563;SDS011;3823;53.586;10.040;2023-02-28T12:46:24;9.25;;;3.38;;
7563;SDS011;3823;53.586;10.040;2023-02-28T12:48:57;5.43;;;3.45;;
7563;SDS011;3823;53.586;10.040;2023-02-28T12:51:29;3.35;;;3.05;;
7563;SDS011;3823;53.586;10.040;2023-02-28T12:54:08;7.25;;;2.83;;
7563;SDS011;3823;53.586;10.040;2023-02-28T12:57:00;3.80;;;2.28;;
7563;SDS011;3823;53.586;10.040;2023-02-28T12:59:39;2.88;;;2.28;;
7563;SDS011;3823;53.586;10.040;2023-02-28T13:05:24;3.28;;;2.22;;
7563;SDS011;3823;53.586;10.040;2023-02-28T13:10:49;10.20;;;2.40;;
7563;SDS011;3823;53.586;10.040;2023-02-28T13:13:24;3.65;;;3.13;;
7563;SDS011;3823;53.586;10.040;2023-02-28T13:19:08;4.28;;;2.40;;
7563;SDS011;3823;53.586;10.040;2023-02-28T13:21:40;2.78;;;2.45;;
7563;SDS011;3823;53.586;10.040;2023-02-28T13:24:09;7.20;;;2.30;;
7563;SDS011;3823;53.586;10.040;2023-02-28T13:29:02;3.85;;;2.47;;
7563;SDS011;3823;53.586;10.040;2023-02-28T13:42:36;5.75;;;3.40;;
7563;SDS011;3823;53.586;10.040;2023-02-28T13:50:29;2.65;;;2.33;;
7563;SDS011;3823;53.586;10.040;2023-02-28T13:53:03;5.13;;;2.67;;
7563;SDS011;3823;53.586;10.040;2023-02-28T13:55:51;2.90;;;2.70;;
7563;SDS011;3823;53.586;10.040;2023-02-28T14:04:19;3.00;;;2.80;;
7563;SDS011;3823;53.586;10.040;2023-02-28T14:07:05;6.80;;;3.20;;
7563;SDS011;3823;53.586;10.040;2023-02-28T14:09:32;5.90;;;3.17;;
7563;SDS011;3823;53.586;10.040;2023-02-28T14:15:04;4.38;;;2.63;;
7563;SDS011;3823;53.586;10.040;2023-02-28T14:17:53;2.75;;;2.55;;
7563;SDS011;3823;53.586;10.040;2023-02-28T14:20:20;2.72;;;2.45;;
7563;SDS011;3823;53.586;10.040;2023-02-28T14:22:55;3.75;;;3.45;;
7563;SDS011;3823;53.586;10.040;2023-02-28T14:28:13;2.97;;;2.22;;
7563;SDS011;3823;53.586;10.040;2023-02-28T14:30:53;2.60;;;2.30;;
7563;SDS011;3823;53.586;10.040;2023-02-28T14:33:48;3.05;;;2.78;;
7563;SDS011;3823;53.586;10.040;2023-02-28T14:36:32;2.65;;;2.30;;
7563;SDS011;3823;53.586;10.040;2023-02-28T14:39:07;3.88;;;2.35;;
7563;SDS011;3823;53.586;10.040;2023-02-28T14:41:41;4.05;;;2.22;;
7563;SDS011;3823;53.586;10.040;2023-02-28T14:44:23;2.00;;;1.90;;
7563;SDS011;3823;53.586;10.040;2023-02-28T14:46:52;3.65;;;2.30;;
7563;SDS011;3823;53.586;10.040;2023-02-28T14:49:36;5.68;;;2.63;;
7563;SDS011;3823;53.586;10.040;2023-02-28T14:52:23;2.38;;;2.17;;
7563;SDS011;3823;53.586;10.040;2023-02-28T14:54:52;3.58;;;2.08;;
7563;SDS011;3823;53.586;10.040;2023-02-28T14:57:27;2.35;;;2.05;;
7563;SDS011;3823;53.586;10.040;2023-02-28T14:59:58;3.92;;;1.88;;
7563;SDS011;3823;53.586;10.040;2023-02-28T15:02:24;2.38;;;2.17;;
7563;SDS011;3823;53.586;10.040;2023-02-28T15:07:24;2.45;;;2.17;;
7563;SDS011;3823;53.586;10.040;2023-02-28T15:12:49;2.30;;;2.10;;
7563;SDS011;3823;53.586;10.040;2023-02-28T15:15:32;3.42;;;2.78;;
7563;SDS011;3823;53.586;10.040;2023-02-28T15:18:00;2.80;;;2.05;;
7563;SDS011;3823;53.586;10.040;2023-02-28T15:20:30;2.03;;;1.70;;
7563;SDS011;3823;53.586;10.040;2023-02-28T15:22:56;2.47;;;1.88;;
7563;SDS011;3823;53.586;10.040;2023-02-28T15:25:24;2.53;;;2.00;;
7563;SDS011;3823;53.586;10.040;2023-02-28T15:27:52;6.32;;;1.77;;
7563;SDS011;3823;53.586;10.040;2023-02-28T15:30:29;1.83;;;1.70;;
7563;SDS011;3823;53.586;10.040;2023-02-28T15:35:38;2.75;;;2.10;;
7563;SDS011;3823;53.586;10.040;2023-02-28T15:40:45;2.45;;;2.25;;
7563;SDS011;3823;53.586;10.040;2023-02-28T15:43:39;5.85;;;2.67;;
7563;SDS011;3823;53.586;10.040;2023-02-28T15:46:06;2.50;;;2.28;;
7563;SDS011;3823;53.586;10.040;2023-02-28T15:48:38;2.85;;;2.50;;
7563;SDS011;3823;53.586;10.040;2023-02-28T15:51:15;2.20;;;2.00;;
7563;SDS011;3823;53.586;10.040;2023-02-28T15:58:53;2.90;;;2.08;;
7563;SDS011;3823;53.586;10.040;2023-02-28T16:01:23;4.15;;;2.28;;
7563;SDS011;3823;53.586;10.040;2023-02-28T16:03:51;3.17;;;2.00;;
7563;SDS011;3823;53.586;10.040;2023-02-28T16:09:02;3.47;;;1.98;;
7563;SDS011;3823;53.586;10.040;2023-02-28T16:11:29;3.67;;;2.15;;
7563;SDS011;3823;53.586;10.040;2023-02-28T16:13:55;2.30;;;2.10;;
7563;SDS011;3823;53.586;10.040;2023-02-28T16:16:22;2.22;;;1.95;;
7563;SDS011;3823;53.586;10.040;2023-02-28T16:18:49;3.30;;;1.88;;
7563;SDS011;3823;53.586;10.040;2023-02-28T16:21:15;3.65;;;2.05;;
7563;SDS011;3823;53.586;10.040;2023-02-28T16:23:41;2.75;;;2.38;;
7563;SDS011;3823;53.586;10.040;2023-02-28T16:26:06;4.13;;;1.92;;
7563;SDS011;3823;53.586;10.040;2023-02-28T16:28:40;2.20;;;1.95;;
7563;SDS011;3823;53.586;10.040;2023-02-28T16:31:06;5.93;;;1.95;;
7563;SDS011;3823;53.586;10.040;2023-02-28T16:33:32;3.45;;;2.25;;
7563;SDS011;3823;53.586;10.040;2023-02-28T16:35:59;12.15;;;2.72;;
7563;SDS011;3823;53.586;10.040;2023-02-28T16:38:25;5.07;;;2.28;;
7563;SDS011;3823;53.586;10.040;2023-02-28T16:40:51;1.80;;;1.70;;
7563;SDS011;3823;53.586;10.040;2023-02-28T16:43:22;3.92;;;2.35;;
7563;SDS011;3823;53.586;10.040;2023-02-28T16:45:53;3.08;;;2.28;;
7563;SDS011;3823;53.586;10.040;2023-02-28T16:48:23;3.03;;;2.10;;
7563;SDS011;3823;53.586;10.040;2023-02-28T16:50:49;1.83;;;1.73;;
7563;SDS011;3823;53.586;10.040;2023-02-28T16:53:16;3.50;;;2.70;;
7563;SDS011;3823;53.586;10.040;2023-02-28T16:55:41;5.53;;;2.38;;
7563;SDS011;3823;53.586;10.040;2023-02-28T16:58:10;2.95;;;1.90;;
7563;SDS011;3823;53.586;10.040;2023-02-28T17:00:40;3.35;;;2.00;;
7563;SDS011;3823;53.586;10.040;2023-02-28T17:03:09;3.03;;;2.40;;
7563;SDS011;3823;53.586;10.040;2023-02-28T17:05:58;2.75;;;2.33;;
7563;SDS011;3823;53.586;10.040;2023-02-28T17:08:24;2.30;;;2.10;;
7563;SDS011;3823;53.586;10.040;2023-02-28T17:10:49;5.60;;;2.30;;
7563;SDS011;3823;53.586;10.040;2023-02-28T17:13:15;4.43;;;2.55;;
7563;SDS011;3823;53.586;10.040;2023-02-28T17:15:40;4.78;;;2.20;;
7563;SDS011;3823;53.586;10.040;2023-02-28T17:18:06;3.92;;;2.40;;
7563;SDS011;3823;53.586;10.040;2023-02-28T17:20:38;5.03;;;2.53;;
7563;SDS011;3823;53.586;10.040;2023-02-28T17:23:04;5.55;;;2.80;;
7563;SDS011;3823;53.586;10.040;2023-02-28T17:25:29;4.50;;;2.67;;
7563;SDS011;3823;53.586;10.040;2023-02-28T17:27:55;3.42;;;2.70;;
7563;SDS011;3823;53.586;10.040;2023-02-28T17:30:22;2.78;;;2.58;;